Time;durP1;ratioP1;P1;durP2;ratioP2;P2;SDS_P1;SDS_P2;PMS_P1;PMS_P2;Temp;Humidity;BMP_temperature;BMP_pressure;BME280_temperature;BME280_humidity;BME280_pressure;Samples;Min_cycle;Max_cycle;Signal;HPM_P1;HPM_P2
2021/06/22 00:01:55;;;;;;;26.02;18.92;;;20.80;99.90;;;;;;5092621;28;20024;-79
2021/06/22 00:04:21;;;;;;;28.40;19.35;;;20.70;99.90;;;;;;5092293;28;20044;-77
2021/06/22 00:06:47;;;;;;;24.80;18.60;;;20.70;99.90;;;;;;5092527;28;20024;-78
2021/06/22 00:09:13;;;;;;;27.90;19.13;;;20.70;99.90;;;;;;5092122;28;20023;-78
2021/06/22 00:11:38;;;;;;;27.73;18.17;;;20.60;99.90;;;;;;5092540;28;20012;-77
2021/06/22 00:14:04;;;;;;;23.48;17.45;;;20.60;99.90;;;;;;5092583;28;20024;-78
2021/06/22 00:16:30;;;;;;;22.92;17.98;;;20.60;99.90;;;;;;5092128;28;20111;-77
2021/06/22 00:18:56;;;;;;;22.52;17.75;;;20.60;99.90;;;;;;5093497;28;20451;-79
2021/06/22 00:21:21;;;;;;;23.90;16.98;;;20.60;99.90;;;;;;5092025;28;20073;-83
2021/06/22 00:23:48;;;;;;;28.48;17.67;;;20.50;99.90;;;;;;5092313;28;20040;-79
2021/06/22 00:26:14;;;;;;;27.48;17.55;;;20.50;99.90;;;;;;5093906;28;20024;-78
2021/06/22 00:28:40;;;;;;;22.27;17.02;;;20.50;99.90;;;;;;5093671;28;20058;-80
2021/06/22 00:31:05;;;;;;;27.65;17.63;;;20.50;99.90;;;;;;5092116;28;20405;-79
2021/06/22 00:33:31;;;;;;;24.42;15.93;;;20.50;99.90;;;;;;5092065;28;20166;-80
2021/06/22 00:35:56;;;;;;;19.20;16.58;;;20.50;99.90;;;;;;5091905;28;20161;-77
2021/06/22 00:38:22;;;;;;;20.77;16.50;;;20.50;99.90;;;;;;5093481;28;20092;-79
2021/06/22 00:40:47;;;;;;;20.92;17.33;;;20.50;99.90;;;;;;5092136;28;20379;-78
2021/06/22 00:43:13;;;;;;;22.38;17.13;;;20.50;99.90;;;;;;5091925;28;20028;-80
2021/06/22 00:45:39;;;;;;;23.77;18.10;;;20.50;99.90;;;;;;5091962;28;20028;-83
2021/06/22 00:48:05;;;;;;;25.48;18.30;;;20.40;99.90;;;;;;5091962;28;20024;-77
2021/06/22 00:50:31;;;;;;;29.65;18.50;;;20.40;99.90;;;;;;5091952;28;20028;-79
2021/06/22 00:52:57;;;;;;;33.05;19.00;;;20.40;99.90;;;;;;5093000;28;20371;-79
2021/06/22 00:55:29;;;;;;;29.35;18.58;;;20.40;99.90;;;;;;5091760;28;20020;-79
2021/06/22 00:58:06;;;;;;;25.58;18.73;;;20.40;99.90;;;;;;5091588;28;20048;-78
2021/06/22 01:00:33;;;;;;;29.80;18.30;;;20.30;99.90;;;;;;5091806;28;20028;-79
2021/06/22 01:03:00;;;;;;;25.58;17.48;;;20.30;99.90;;;;;;5091892;28;20020;-79
2021/06/22 01:05:26;;;;;;;25.40;17.75;;;20.30;99.90;;;;;;5092008;28;20020;-79
2021/06/22 01:07:54;;;;;;;30.92;18.17;;;20.30;99.90;;;;;;5091889;28;20502;-78
2021/06/22 01:10:21;;;;;;;26.98;18.08;;;20.20;99.90;;;;;;5091647;28;20481;-78
2021/06/22 01:12:47;;;;;;;27.75;19.10;;;20.20;99.90;;;;;;5091353;28;20024;-83
2021/06/22 01:15:20;;;;;;;24.77;18.92;;;20.20;99.90;;;;;;5091804;28;20020;-80
2021/06/22 01:17:46;;;;;;;25.23;19.45;;;20.10;99.90;;;;;;5075521;28;20028;-82
2021/06/22 01:20:13;;;;;;;27.05;18.38;;;20.10;99.90;;;;;;5091863;28;20071;-80
2021/06/22 01:22:43;;;;;;;29.40;18.58;;;20.20;99.90;;;;;;5092180;28;20436;-78
2021/06/22 01:25:10;;;;;;;25.08;18.52;;;20.20;99.90;;;;;;5091368;28;20028;-79
2021/06/22 01:27:36;;;;;;;26.40;18.23;;;20.20;99.90;;;;;;5091268;28;20050;-80
2021/06/22 01:30:04;;;;;;;26.00;18.38;;;20.10;99.90;;;;;;5091725;28;20667;-79
2021/06/22 01:32:29;;;;;;;25.92;17.38;;;20.10;99.90;;;;;;5091037;28;20378;-80
2021/06/22 01:34:59;;;;;;;28.85;17.48;;;20.10;99.90;;;;;;5096415;28;20024;-79
2021/06/22 01:37:24;;;;;;;25.20;18.02;;;20.00;99.90;;;;;;5095261;28;20030;-79
2021/06/22 01:39:50;;;;;;;24.05;17.80;;;20.00;99.90;;;;;;5095636;28;20031;-78
2021/06/22 01:42:17;;;;;;;24.42;18.70;;;20.00;99.90;;;;;;5094953;28;20035;-78
2021/06/22 01:44:46;;;;;;;23.75;18.48;;;20.00;99.90;;;;;;5096009;28;20028;-79
2021/06/22 01:47:12;;;;;;;24.85;18.65;;;19.90;99.90;;;;;;5095051;28;20046;-78
2021/06/22 01:49:37;;;;;;;23.67;18.25;;;19.90;99.90;;;;;;5094783;28;20518;-79
2021/06/22 01:52:03;;;;;;;23.38;18.35;;;19.90;99.90;;;;;;5095837;28;20020;-79
2021/06/22 01:54:29;;;;;;;26.42;19.40;;;19.90;99.90;;;;;;5095021;28;20115;-79
2021/06/22 01:56:55;;;;;;;25.95;17.98;;;19.90;99.90;;;;;;5094576;28;20047;-79
2021/06/22 01:59:21;;;;;;;27.67;19.02;;;19.80;99.90;;;;;;5094667;28;20031;-79
2021/06/22 02:01:46;;;;;;;24.85;18.20;;;19.80;99.90;;;;;;5094709;28;20028;-79
2021/06/22 02:04:12;;;;;;;26.95;18.25;;;19.80;99.90;;;;;;5094122;28;20089;-79
2021/06/22 02:06:39;;;;;;;31.48;19.33;;;19.70;99.90;;;;;;5094150;28;20024;-79
2021/06/22 02:09:05;;;;;;;28.73;20.67;;;19.70;99.90;;;;;;5095379;28;20383;-78
2021/06/22 02:11:31;;;;;;;25.85;19.15;;;19.70;99.90;;;;;;5095572;28;20111;-78
2021/06/22 02:13:56;;;;;;;29.88;19.48;;;19.70;99.90;;;;;;5094517;28;20113;-79
2021/06/22 02:16:23;;;;;;;32.15;19.92;;;19.70;99.90;;;;;;5095557;28;20048;-79
2021/06/22 02:18:49;;;;;;;25.83;17.42;;;19.70;99.90;;;;;;5094014;28;20180;-79
2021/06/22 02:21:15;;;;;;;20.05;17.45;;;19.60;99.90;;;;;;5095489;28;20099;-77
2021/06/22 02:23:40;;;;;;;21.60;16.10;;;19.60;99.90;;;;;;5095385;28;20165;-79
2021/06/22 02:26:06;;;;;;;21.08;16.02;;;19.60;99.90;;;;;;5094009;28;20391;-79
2021/06/22 02:28:33;;;;;;;25.45;19.02;;;19.60;99.90;;;;;;5094297;28;20020;-78
2021/06/22 02:30:59;;;;;;;25.42;18.55;;;19.50;99.90;;;;;;5095226;28;20020;-78
2021/06/22 02:33:26;;;;;;;31.90;20.20;;;19.50;99.90;;;;;;5094000;28;20081;-79
2021/06/22 02:35:52;;;;;;;27.13;19.02;;;19.50;99.90;;;;;;5093827;28;20086;-79
2021/06/22 02:38:18;;;;;;;30.70;19.13;;;19.50;99.90;;;;;;5093797;28;20050;-79
2021/06/22 02:40:44;;;;;;;29.35;17.75;;;19.50;99.90;;;;;;5093702;28;20401;-78
2021/06/22 02:43:11;;;;;;;27.35;17.25;;;19.50;99.90;;;;;;5093660;28;20036;-79
2021/06/22 02:45:37;;;;;;;29.35;16.40;;;19.50;99.90;;;;;;5093486;28;20518;-79
2021/06/22 02:48:03;;;;;;;29.77;16.10;;;19.40;99.90;;;;;;5093459;28;20060;-79
2021/06/22 02:50:29;;;;;;;24.40;16.88;;;19.40;99.90;;;;;;5093429;28;20012;-77
2021/06/22 02:52:55;;;;;;;21.27;16.67;;;19.30;99.90;;;;;;5093328;28;20028;-78
2021/06/22 02:55:21;;;;;;;21.85;16.20;;;19.30;99.90;;;;;;5093693;28;20034;-81
2021/06/22 02:57:49;;;;;;;21.08;17.50;;;19.30;99.90;;;;;;5093263;28;20052;-79
2021/06/22 03:00:17;;;;;;;24.70;16.85;;;19.30;99.90;;;;;;5093232;28;20028;-78
2021/06/22 03:02:42;;;;;;;25.30;17.02;;;19.20;99.90;;;;;;5093570;28;20722;-79
2021/06/22 03:05:09;;;;;;;73.32;65.28;;;19.20;99.90;;;;;;5094653;28;20119;-78
2021/06/22 03:07:35;;;;;;;40.00;28.50;;;19.20;99.90;;;;;;5094469;28;20383;-78
2021/06/22 03:10:00;;;;;;;38.50;32.83;;;19.20;99.90;;;;;;5093186;28;20031;-79
2021/06/22 03:12:26;;;;;;;28.65;21.90;;;19.20;99.90;;;;;;5094412;28;20027;-79
2021/06/22 03:14:51;;;;;;;28.13;17.77;;;19.20;99.90;;;;;;5093201;28;20024;-78
2021/06/22 03:17:17;;;;;;;21.00;16.38;;;19.10;99.90;;;;;;5092973;28;20081;-79
2021/06/22 03:19:43;;;;;;;28.48;18.23;;;19.10;99.90;;;;;;5095898;28;20055;-85
2021/06/22 03:22:08;;;;;;;12.93;11.68;;;19.10;99.90;;;;;;5094191;28;20110;-82
2021/06/22 03:24:34;;;;;;;18.67;13.70;;;19.90;99.90;;;;;;5094217;28;20390;-81
2021/06/22 03:27:00;;;;;;;20.75;13.05;;;20.90;99.90;;;;;;5094192;28;20530;-81
2021/06/22 03:29:25;;;;;;;45.58;35.00;;;21.30;99.90;;;;;;5094127;28;20050;-80
2021/06/22 03:31:52;;;;;;;41.30;34.83;;;21.50;99.90;;;;;;5093919;28;20475;-84
2021/06/22 03:34:18;;;;;;;24.42;19.25;;;21.70;99.90;;;;;;5093847;28;20024;-81
2021/06/22 03:36:44;;;;;;;22.65;14.20;;;21.60;99.90;;;;;;5093833;28;20020;-80
2021/06/22 03:39:10;;;;;;;18.55;13.32;;;21.40;99.90;;;;;;5093835;28;20482;-81
2021/06/22 03:41:37;;;;;;;25.00;15.80;;;21.50;99.90;;;;;;5093619;28;20024;-80
2021/06/22 03:44:03;;;;;;;36.75;15.75;;;21.50;99.90;;;;;;5093742;28;20538;-80
2021/06/22 03:46:29;;;;;;;21.73;14.82;;;21.10;99.90;;;;;;5093646;28;20031;-80
2021/06/22 03:48:54;;;;;;;27.77;15.80;;;21.40;99.90;;;;;;5093709;28;20024;-79
2021/06/22 03:51:20;;;;;;;18.80;13.48;;;21.50;99.90;;;;;;5093592;28;20066;-84
2021/06/22 03:53:46;;;;;;;24.05;16.55;;;21.40;99.90;;;;;;5093627;28;20031;-78
2021/06/22 03:56:11;;;;;;;24.92;15.77;;;21.40;99.90;;;;;;5093166;28;20397;-81
2021/06/22 03:58:38;;;;;;;25.08;16.50;;;21.10;99.90;;;;;;5096906;28;20055;-83
2021/06/22 04:01:04;;;;;;;24.55;16.42;;;20.60;99.90;;;;;;5097945;28;20027;-79
2021/06/22 04:03:30;;;;;;;23.17;16.80;;;20.60;99.90;;;;;;5093445;28;20032;-79
2021/06/22 04:05:56;;;;;;;20.80;17.35;;;20.70;99.90;;;;;;5093529;28;20028;-79
2021/06/22 04:08:21;;;;;;;22.83;18.63;;;20.80;99.90;;;;;;5093680;28;20024;-79
2021/06/22 04:10:47;;;;;;;22.27;17.70;;;21.00;99.90;;;;;;5093404;28;20020;-83
2021/06/22 04:13:13;;;;;;;24.33;17.05;;;21.00;99.90;;;;;;5093625;28;20032;-81
2021/06/22 04:15:39;;;;;;;24.73;15.98;;;20.90;99.90;;;;;;5093280;28;20058;-79
2021/06/22 04:18:08;;;;;;;21.65;15.73;;;21.30;99.90;;;;;;5093342;28;20108;-81
2021/06/22 04:20:35;;;;;;;20.58;15.95;;;21.50;99.90;;;;;;5093143;28;20035;-82
2021/06/22 04:23:01;;;;;;;23.70;16.67;;;21.60;99.90;;;;;;5093096;28;20031;-80
2021/06/22 04:25:27;;;;;;;20.30;16.98;;;21.80;99.90;;;;;;5093076;28;20073;-80
2021/06/22 04:27:53;;;;;;;21.50;15.93;;;21.70;99.90;;;;;;5093197;28;20020;-81
2021/06/22 04:30:19;;;;;;;23.05;17.23;;;21.50;99.90;;;;;;5093229;28;20025;-81
2021/06/22 04:32:45;;;;;;;27.50;18.25;;;21.40;99.90;;;;;;5093144;28;20016;-82
2021/06/22 04:35:11;;;;;;;24.05;18.30;;;21.60;99.90;;;;;;5093061;28;20118;-82
2021/06/22 04:37:39;;;;;;;23.48;15.52;;;21.40;99.90;;;;;;5093141;28;20069;-82
2021/06/22 04:40:05;;;;;;;23.65;15.88;;;21.60;99.90;;;;;;5093045;28;20024;-84
2021/06/22 04:42:31;;;;;;;22.10;14.65;;;21.60;99.90;;;;;;5093306;28;20020;-80
2021/06/22 04:44:56;;;;;;;20.63;14.68;;;21.60;99.90;;;;;;5092907;28;20043;-79
2021/06/22 04:47:22;;;;;;;24.00;16.52;;;21.70;99.90;;;;;;5093147;28;20027;-81
2021/06/22 04:49:47;;;;;;;21.35;16.23;;;21.80;99.90;;;;;;5092836;28;20055;-82
2021/06/22 04:52:13;;;;;;;22.30;15.88;;;21.70;99.90;;;;;;5092814;28;20107;-78
2021/06/22 04:54:39;;;;;;;19.65;15.35;;;21.70;99.90;;;;;;5092850;28;20447;-80
2021/06/22 04:57:06;;;;;;;19.48;15.57;;;21.70;99.90;;;;;;5092861;28;20093;-82
2021/06/22 04:59:33;;;;;;;23.10;17.50;;;21.70;99.90;;;;;;5092954;28;20027;-79
2021/06/22 05:01:59;;;;;;;20.25;15.57;;;21.60;99.90;;;;;;5092723;28;20047;-80
2021/06/22 05:04:25;;;;;;;20.65;17.02;;;21.60;99.90;;;;;;5092715;28;20036;-78
2021/06/22 05:06:51;;;;;;;23.83;17.23;;;21.70;99.90;;;;;;5093139;28;20386;-79
2021/06/22 05:09:16;;;;;;;28.00;17.15;;;21.70;99.90;;;;;;5095782;28;20035;-81
2021/06/22 05:11:42;;;;;;;22.00;17.45;;;21.90;99.90;;;;;;5096846;28;20020;-79
2021/06/22 05:14:08;;;;;;;22.85;15.98;;;21.90;99.90;;;;;;5096548;28;20050;-76
2021/06/22 05:16:34;;;;;;;21.75;14.82;;;22.00;99.90;;;;;;5097144;28;20051;-78
2021/06/22 05:18:59;;;;;;;32.10;15.95;;;22.20;99.90;;;;;;5095965;28;20459;-79
2021/06/22 05:21:25;;;;;;;21.55;14.63;;;22.50;99.90;;;;;;5096877;28;20058;-76
2021/06/22 05:23:51;;;;;;;24.70;15.38;;;22.60;99.90;;;;;;5095226;28;20132;-79
2021/06/22 05:26:16;;;;;;;27.63;14.63;;;22.70;99.90;;;;;;5096338;28;20016;-76
2021/06/22 05:28:42;;;;;;;27.42;14.80;;;22.90;99.90;;;;;;5095178;28;20035;-77
2021/06/22 05:31:08;;;;;;;25.88;15.65;;;23.00;99.90;;;;;;5095792;28;20024;-82
2021/06/22 05:33:33;;;;;;;26.17;14.75;;;23.20;99.90;;;;;;5095920;28;20118;-77
2021/06/22 05:35:59;;;;;;;25.77;15.02;;;23.20;99.90;;;;;;5095743;28;20051;-78
2021/06/22 05:38:24;;;;;;;26.10;14.82;;;23.40;99.90;;;;;;5095846;28;20024;-76
2021/06/22 05:40:50;;;;;;;21.70;14.27;;;23.40;99.90;;;;;;5095947;28;20024;-76
2021/06/22 05:43:16;;;;;;;22.08;14.30;;;23.60;99.90;;;;;;5095539;28;20141;-80
2021/06/22 05:45:41;;;;;;;22.48;14.65;;;23.70;99.90;;;;;;5094716;28;20038;-78
2021/06/22 05:48:07;;;;;;;27.40;14.35;;;23.80;99.90;;;;;;5095836;28;20030;-77
2021/06/22 05:50:33;;;;;;;22.88;14.00;;;24.00;99.90;;;;;;5093208;28;20024;-79
2021/06/22 05:52:58;;;;;;;26.27;14.13;;;24.20;99.90;;;;;;5095087;28;20055;-77
2021/06/22 05:55:24;;;;;;;28.85;15.10;;;24.30;99.90;;;;;;5095701;28;20052;-77
2021/06/22 05:57:54;;;;;;;34.28;14.90;;;24.40;99.90;;;;;;5095071;28;20097;-76
2021/06/22 06:00:23;;;;;;;23.52;14.55;;;24.50;99.90;;;;;;5095002;28;20028;-80
2021/06/22 06:02:50;;;;;;;28.98;15.05;;;24.80;99.90;;;;;;5095204;28;20171;-77
2021/06/22 06:05:17;;;;;;;36.67;15.18;;;25.00;99.90;;;;;;5095033;28;20059;-77
2021/06/22 06:07:43;;;;;;;27.95;14.18;;;25.20;99.90;;;;;;5094416;28;20475;-79
2021/06/22 06:10:11;;;;;;;24.52;14.60;;;25.10;99.90;;;;;;5094874;28;20042;-78
2021/06/22 06:12:36;;;;;;;25.20;14.43;;;25.30;99.90;;;;;;5094910;28;20024;-77
2021/06/22 06:15:04;;;;;;;26.52;14.98;;;25.50;99.90;;;;;;5096084;28;20024;-76
2021/06/22 06:17:29;;;;;;;22.55;13.30;;;25.50;99.90;;;;;;5094824;28;20459;-77
2021/06/22 06:19:55;;;;;;;23.45;14.50;;;25.60;99.90;;;;;;5092925;28;20173;-78
2021/06/22 06:22:21;;;;;;;22.80;13.13;;;25.80;99.90;;;;;;5093858;28;20027;-79
2021/06/22 06:24:47;;;;;;;25.92;13.00;;;25.90;99.90;;;;;;5094809;28;20031;-78
2021/06/22 06:27:18;;;;;;;24.83;13.23;;;25.90;99.90;;;;;;5092955;28;20028;-79
2021/06/22 06:29:53;;;;;;;24.30;12.63;;;26.00;99.90;;;;;;5094573;28;20537;-81
2021/06/22 06:32:20;;;;;;;27.63;13.02;;;26.10;99.90;;;;;;5094208;28;20028;-77
2021/06/22 06:34:45;;;;;;;22.42;12.25;;;26.20;99.90;;;;;;5093176;28;20035;-84
2021/06/22 06:37:11;;;;;;;24.05;15.07;;;26.30;99.90;;;;;;5094725;28;20013;-77
2021/06/22 06:39:37;;;;;;;28.83;13.20;;;26.40;99.90;;;;;;5094549;28;20081;-83
2021/06/22 06:42:03;;;;;;;26.15;13.00;;;26.40;99.90;;;;;;5094569;28;20046;-81
2021/06/22 06:44:29;;;;;;;27.40;12.68;;;26.50;99.90;;;;;;5094382;28;20036;-77
2021/06/22 06:46:55;;;;;;;25.77;13.30;;;26.80;99.90;;;;;;5094053;28;20028;-80
2021/06/22 06:49:20;;;;;;;27.92;12.25;;;27.00;99.90;;;;;;5093367;28;20028;-79
2021/06/22 06:51:46;;;;;;;26.60;11.45;;;27.20;99.90;;;;;;5094782;28;20038;-81
2021/06/22 06:54:12;;;;;;;28.95;11.57;;;27.20;99.90;;;;;;5094833;28;20028;-76
2021/06/22 06:56:37;;;;;;;22.65;12.13;;;27.30;99.90;;;;;;5093181;28;20499;-77
2021/06/22 06:59:03;;;;;;;24.52;12.15;;;27.30;99.90;;;;;;5093338;28;20123;-79
2021/06/22 07:01:29;;;;;;;26.80;11.25;;;27.50;99.90;;;;;;5093267;28;20359;-78
2021/06/22 07:03:55;;;;;;;32.67;13.05;;;27.50;99.90;;;;;;5092440;28;20122;-77
2021/06/22 07:06:21;;;;;;;22.58;12.48;;;27.50;99.90;;;;;;5093048;28;20016;-82
2021/06/22 07:08:47;;;;;;;21.48;12.55;;;27.50;99.90;;;;;;5093808;28;20039;-79
2021/06/22 07:11:13;;;;;;;27.83;13.32;;;27.60;99.90;;;;;;5093743;28;20467;-77
2021/06/22 07:13:39;;;;;;;22.00;12.40;;;27.50;99.90;;;;;;5092973;28;20023;-82
2021/06/22 07:16:05;;;;;;;21.75;12.60;;;27.50;99.90;;;;;;5093428;28;20031;-75
2021/06/22 07:18:31;;;;;;;27.60;13.05;;;27.60;99.90;;;;;;5093302;28;20024;-77
2021/06/22 07:20:58;;;;;;;19.35;11.65;;;27.70;99.90;;;;;;5093183;28;20028;-77
2021/06/22 07:23:24;;;;;;;23.52;11.80;;;27.80;99.90;;;;;;5093104;28;20032;-83
2021/06/22 07:25:50;;;;;;;23.30;13.35;;;27.80;99.90;;;;;;5094635;28;20026;-78
2021/06/22 07:28:16;;;;;;;31.35;12.93;;;27.70;99.90;;;;;;5076777;28;20054;-77
2021/06/22 07:30:41;;;;;;;26.58;12.30;;;27.70;99.90;;;;;;5092351;28;20103;-83
2021/06/22 07:33:07;;;;;;;23.92;11.68;;;27.90;99.90;;;;;;5094199;28;20047;-77
2021/06/22 07:35:33;;;;;;;21.98;13.32;;;28.00;99.90;;;;;;5093173;28;20028;-77
2021/06/22 07:38:00;;;;;;;22.08;12.40;;;28.00;99.90;;;;;;5093440;28;20028;-82
2021/06/22 07:40:26;;;;;;;25.35;12.70;;;28.00;99.90;;;;;;5092605;28;20020;-75
2021/06/22 07:42:53;;;;;;;21.33;11.90;;;28.00;99.90;;;;;;5093820;28;20028;-77
2021/06/22 07:45:19;;;;;;;22.35;12.57;;;28.00;99.90;;;;;;5092119;28;20108;-78
2021/06/22 07:47:45;;;;;;;24.08;11.88;;;28.10;99.90;;;;;;5092117;28;20024;-80
2021/06/22 07:50:12;;;;;;;27.88;12.10;;;28.20;99.90;;;;;;5093321;28;20020;-79
2021/06/22 07:52:38;;;;;;;25.77;12.00;;;28.30;99.90;;;;;;5092548;28;20039;-82
2021/06/22 07:55:05;;;;;;;24.98;11.75;;;28.50;99.90;;;;;;5092906;28;20016;-79
2021/06/22 07:57:31;;;;;;;34.22;12.10;;;28.60;99.90;;;;;;5091088;28;20043;-80
2021/06/22 07:59:57;;;;;;;23.23;12.10;;;28.60;99.90;;;;;;5091905;28;20020;-80
2021/06/22 08:02:22;;;;;;;23.23;12.82;;;28.70;99.90;;;;;;5092858;28;20093;-75
2021/06/22 08:04:48;;;;;;;20.80;11.73;;;28.60;99.90;;;;;;5091399;28;20036;-77
2021/06/22 08:07:14;;;;;;;23.63;11.75;;;28.70;99.90;;;;;;5091547;28;20032;-76
2021/06/22 08:09:39;;;;;;;26.15;12.02;;;28.70;99.90;;;;;;5091484;28;20031;-79
2021/06/22 08:12:05;;;;;;;19.45;12.32;;;28.60;99.90;;;;;;5091350;28;20082;-77
2021/06/22 08:14:31;;;;;;;22.75;12.15;;;28.60;99.90;;;;;;5091567;28;20032;-75
2021/06/22 08:16:56;;;;;;;24.15;11.63;;;28.60;99.90;;;;;;5091536;28;20024;-77
2021/06/22 08:19:22;;;;;;;22.90;11.80;;;28.70;99.90;;;;;;5091432;28;20482;-78
2021/06/22 08:21:48;;;;;;;23.40;11.98;;;28.80;99.90;;;;;;5091293;28;20031;-76
2021/06/22 08:24:13;;;;;;;18.30;10.98;;;28.90;99.90;;;;;;5091142;28;20066;-82
2021/06/22 08:26:39;;;;;;;23.00;11.13;;;29.00;99.90;;;;;;5091388;28;20028;-77
2021/06/22 08:29:05;;;;;;;19.38;11.35;;;29.10;99.90;;;;;;5091290;28;20031;-76
2021/06/22 08:31:31;;;;;;;20.85;11.10;;;29.10;99.80;;;;;;5091328;28;20060;-78
2021/06/22 08:33:56;;;;;;;22.98;10.90;;;29.00;99.30;;;;;;5091220;28;20061;-77
2021/06/22 08:36:22;;;;;;;17.13;10.30;;;29.00;99.80;;;;;;5091190;28;20455;-78
2021/06/22 08:38:47;;;;;;;17.92;10.55;;;29.10;99.70;;;;;;5091176;28;20032;-77
2021/06/22 08:41:14;;;;;;;19.77;9.68;;;29.10;98.60;;;;;;5091065;28;20099;-77
2021/06/22 08:43:41;;;;;;;15.85;10.02;;;29.30;99.20;;;;;;5096291;28;20109;-78
2021/06/22 08:46:09;;;;;;;19.65;9.63;;;29.30;98.30;;;;;;5095174;28;20173;-77
2021/06/22 08:48:34;;;;;;;15.25;8.90;;;29.40;98.90;;;;;;5095369;28;20028;-79
2021/06/22 08:51:00;;;;;;;16.50;9.38;;;29.40;97.20;;;;;;5095024;28;20031;-76
2021/06/22 08:53:27;;;;;;;21.40;10.27;;;29.40;96.50;;;;;;5095160;28;20107;-82
2021/06/22 08:55:53;;;;;;;19.58;9.93;;;29.30;97.60;;;;;;5095043;28;20111;-78
2021/06/22 08:58:19;;;;;;;17.42;8.68;;;29.50;98.50;;;;;;5094757;28;20132;-75
2021/06/22 09:00:48;;;;;;;22.65;9.65;;;29.70;98.70;;;;;;5096124;28;20024;-77
2021/06/22 09:03:16;;;;;;;17.52;8.88;;;29.70;97.40;;;;;;5094894;28;20037;-76
2021/06/22 09:05:47;;;;;;;17.15;8.20;;;29.60;96.50;;;;;;5094903;28;20024;-77
2021/06/22 09:08:26;;;;;;;16.75;8.57;;;29.60;96.70;;;;;;5095038;28;20031;-77
2021/06/22 09:10:55;;;;;;;19.95;8.50;;;29.80;97.50;;;;;;5094600;28;20034;-76
2021/06/22 09:13:23;;;;;;;20.25;8.48;;;29.80;96.30;;;;;;5096192;28;20017;-78
2021/06/22 09:15:52;;;;;;;16.00;8.23;;;29.90;95.90;;;;;;5094670;28;20028;-77
2021/06/22 09:18:30;;;;;;;21.52;8.27;;;29.80;95.60;;;;;;5094735;28;20032;-79
2021/06/22 09:20:59;;;;;;;21.38;7.95;;;29.90;95.90;;;;;;5094430;28;20427;-78
2021/06/22 09:23:31;;;;;;;16.70;8.10;;;30.10;97.20;;;;;;5094526;28;20545;-78
2021/06/22 09:25:57;;;;;;;16.83;7.47;;;30.10;95.50;;;;;;5094655;28;20028;-77
2021/06/22 09:28:28;;;;;;;12.32;6.75;;;30.10;94.50;;;;;;5094817;28;20142;-83
2021/06/22 09:30:56;;;;;;;22.73;7.93;;;30.10;95.20;;;;;;5094354;28;20038;-77
2021/06/22 09:33:34;;;;;;;14.82;7.57;;;29.90;94.80;;;;;;5094498;28;20028;-79
2021/06/22 09:36:05;;;;;;;16.80;7.50;;;30.00;95.30;;;;;;5095659;28;20026;-77
2021/06/22 09:38:52;;;;;;;16.88;6.43;;;30.20;94.40;;;;;;5095788;28;20024;-78
2021/06/22 09:41:23;;;;;;;13.85;6.68;;;30.30;93.90;;;;;;5094326;28;20119;-78
2021/06/22 09:44:08;;;;;;;13.15;6.57;;;30.50;94.30;;;;;;5095436;28;20036;-77
2021/06/22 09:46:51;;;;;;;16.25;6.38;;;30.60;94.20;;;;;;5095337;28;20095;-83
2021/06/22 09:49:18;;;;;;;16.60;6.50;;;30.80;93.60;;;;;;5095420;28;20035;-82
2021/06/22 09:54:22;;;;;;;12.32;5.80;;;30.60;92.90;;;;;;5094292;28;20032;-76
2021/06/22 09:56:58;;;;;;;10.90;5.82;;;30.60;92.50;;;;;;5093682;28;20029;-77
2021/06/22 09:59:24;;;;;;;12.57;6.10;;;30.50;91.90;;;;;;5094010;28;20063;-76
2021/06/22 10:01:52;;;;;;;12.48;5.78;;;30.60;92.30;;;;;;5093763;28;20047;-80
2021/06/22 10:04:27;;;;;;;14.52;5.88;;;30.60;92.30;;;;;;5095037;28;20028;-75
2021/06/22 10:06:53;;;;;;;16.80;6.10;;;30.60;91.60;;;;;;5093925;28;20024;-76
2021/06/22 10:09:20;;;;;;;16.02;5.82;;;30.60;90.20;;;;;;5095057;28;20093;-77
2021/06/22 10:11:46;;;;;;;11.77;5.53;;;30.60;90.00;;;;;;5093533;28;20371;-79
2021/06/22 10:14:24;;;;;;;14.45;6.05;;;30.70;90.30;;;;;;5095007;28;20510;-76
2021/06/22 10:16:51;;;;;;;14.40;5.75;;;30.70;90.60;;;;;;5094482;28;20032;-77
2021/06/22 10:19:17;;;;;;;16.42;5.97;;;30.70;91.60;;;;;;5094825;28;20032;-77
2021/06/22 10:21:43;;;;;;;13.75;5.70;;;30.80;91.40;;;;;;5093286;28;20440;-77
2021/06/22 10:24:08;;;;;;;11.63;5.63;;;30.90;91.10;;;;;;5094699;28;20469;-76
2021/06/22 10:26:34;;;;;;;15.00;5.50;;;30.70;90.70;;;;;;5092954;28;20028;-77
2021/06/22 10:29:02;;;;;;;11.23;5.57;;;30.90;91.30;;;;;;5094769;28;20028;-82
2021/06/22 10:31:30;;;;;;;18.35;5.72;;;30.80;90.30;;;;;;5094195;28;20028;-75
2021/06/22 10:33:57;;;;;;;19.55;5.40;;;30.80;88.20;;;;;;5093190;28;20107;-78
2021/06/22 10:36:32;;;;;;;12.85;5.53;;;30.90;89.10;;;;;;5094401;28;20467;-77
2021/06/22 10:39:40;;;;;;;13.20;5.95;;;30.90;89.10;;;;;;5094172;28;20035;-80
2021/06/22 10:42:13;;;;;;;12.68;5.65;;;31.10;87.90;;;;;;5085165;28;20067;-76
2021/06/22 10:44:46;;;;;;;13.43;5.20;;;31.20;87.50;;;;;;5093998;28;20032;-80
2021/06/22 10:47:19;;;;;;;11.95;5.28;;;31.10;89.30;;;;;;5093566;28;20483;-80
2021/06/22 10:50:20;;;;;;;14.50;5.60;;;31.30;88.40;;;;;;5094415;28;20510;-78
2021/06/22 10:52:50;;;;;;;17.45;5.40;;;31.30;84.30;;;;;;5101046;28;20027;-80
2021/06/22 10:55:28;;;;;;;12.63;5.20;;;31.40;85.60;;;;;;5097451;28;20119;-80
2021/06/22 10:57:59;;;;;;;14.02;5.43;;;31.40;85.60;;;;;;5099415;28;20040;-78
2021/06/22 11:00:26;;;;;;;16.02;5.72;;;31.50;87.00;;;;;;5093291;28;20060;-77
2021/06/22 11:03:07;;;;;;;13.65;5.18;;;31.60;86.10;;;;;;5093656;28;20024;-77
2021/06/22 11:05:39;;;;;;;13.52;5.53;;;31.40;85.00;;;;;;5093625;28;20040;-76
2021/06/22 11:08:17;;;;;;;15.68;5.55;;;31.20;83.40;;;;;;5094936;28;20062;-78
2021/06/22 11:11:25;;;;;;;14.32;5.63;;;31.30;86.60;;;;;;5093802;28;20799;-77
2021/06/22 11:13:59;;;;;;;15.07;5.35;;;31.30;85.20;;;;;;5093769;28;20409;-78
2021/06/22 11:16:27;;;;;;;16.55;5.43;;;31.40;86.90;;;;;;5094070;28;20042;-77
2021/06/22 11:21:22;;;;;;;13.52;4.75;;;31.30;84.40;;;;;;5094447;28;20032;-76
2021/06/22 11:24:14;;;;;;;10.32;4.97;;;31.30;86.30;;;;;;5093104;28;20032;-77
2021/06/22 11:26:49;;;;;;;13.05;4.88;;;31.50;86.50;;;;;;5093281;28;20024;-78
2021/06/22 11:29:25;;;;;;;10.82;5.13;;;31.50;85.70;;;;;;5092813;28;20028;-79
2021/06/22 11:31:51;;;;;;;15.63;5.20;;;31.40;86.60;;;;;;5092608;28;20023;-80
2021/06/22 11:34:19;;;;;;;17.48;5.13;;;31.50;84.50;;;;;;5093851;28;20024;-78
2021/06/22 11:36:53;;;;;;;18.55;5.28;;;31.60;84.90;;;;;;5092782;28;20028;-78
2021/06/22 11:39:19;;;;;;;15.40;5.43;;;31.50;85.10;;;;;;5092848;28;20025;-77
2021/06/22 11:42:06;;;;;;;15.90;5.00;;;31.50;85.10;;;;;;5093295;28;20302;-77
2021/06/22 11:44:34;;;;;;;10.55;4.88;;;31.70;88.20;;;;;;5093396;28;20466;-77
2021/06/22 11:47:00;;;;;;;14.25;5.50;;;31.60;82.80;;;;;;5091730;28;20113;-79
2021/06/22 11:49:45;;;;;;;19.95;5.70;;;31.30;84.30;;;;;;5090516;28;20038;-80
2021/06/22 11:52:20;;;;;;;13.65;5.43;;;30.80;85.40;;;;;;5092203;28;20020;-76
2021/06/22 11:54:54;;;;;;;13.27;4.97;;;30.70;85.10;;;;;;5093617;28;20030;-77
2021/06/22 11:57:22;;;;;;;10.02;4.90;;;30.70;87.30;;;;;;5093187;28;20402;-76
2021/06/22 11:59:48;;;;;;;11.23;5.13;;;31.00;89.20;;;;;;5091971;28;20028;-76
2021/06/22 12:02:15;;;;;;;12.15;4.85;;;31.10;87.40;;;;;;5093250;28;20092;-76
2021/06/22 12:04:42;;;;;;;12.85;5.25;;;31.40;83.70;;;;;;5092005;28;20129;-77
2021/06/22 12:07:11;;;;;;;13.38;4.88;;;31.50;84.80;;;;;;5092375;28;20020;-79
2021/06/22 12:09:40;;;;;;;15.57;5.38;;;31.50;80.00;;;;;;5091008;28;20421;-77
2021/06/22 12:12:06;;;;;;;12.50;4.75;;;31.60;82.00;;;;;;5091474;28;20020;-77
2021/06/22 12:14:32;;;;;;;9.82;4.57;;;31.60;82.10;;;;;;5091990;28;20479;-77
2021/06/22 12:16:58;;;;;;;13.20;4.63;;;31.60;83.70;;;;;;5091378;28;20028;-77
2021/06/22 12:19:25;;;;;;;11.18;4.40;;;31.80;83.10;;;;;;5093091;28;20099;-76
2021/06/22 12:21:57;;;;;;;7.85;3.88;;;31.70;81.90;;;;;;5091727;28;20455;-75
2021/06/22 12:24:23;;;;;;;9.98;4.38;;;31.90;83.70;;;;;;5091459;28;20433;-78
2021/06/22 12:26:52;;;;;;;10.93;4.30;;;31.80;81.80;;;;;;5091537;28;20024;-77
2021/06/22 12:29:17;;;;;;;12.77;4.40;;;31.80;80.80;;;;;;5091509;28;20047;-78
2021/06/22 12:31:50;;;;;;;9.95;4.93;;;32.00;81.40;;;;;;5091618;28;20363;-77
2021/06/22 12:34:16;;;;;;;13.65;4.47;;;32.10;78.90;;;;;;5091088;28;20025;-78
2021/06/22 12:36:42;;;;;;;10.98;5.00;;;32.20;79.90;;;;;;5091757;28;20077;-76
2021/06/22 12:39:08;;;;;;;13.15;4.50;;;32.10;79.50;;;;;;5091667;28;20597;-80